Time,TemperatureF,DewpointF,PressureIn,WindDirection,WindDirectionDegrees,WindSpeedMPH,WindSpeedGustMPH,Humidity,HourlyPrecipIn,Conditions,Clouds,dailyrainin,SoftwareType,DateUTC
2013-08-24 00:22:00,57.6,53.1,30.17,West,264,0.0,0.0,85,0.00,,,0.18,VWS V13.01,2013-08-24 04:22:00,
2013-08-24 00:27:00,57.6,53.1,30.17,West,264,0.0,0.0,85,0.00,,,0.00,VWS V13.01,2013-08-24 04:27:00,
2013-08-24 00:32:00,57.4,52.9,30.17,West,264,0.0,0.0,85,0.00,,,0.00,VWS V13.01,2013-08-24 04:32:00,
2013-08-24 00:37:00,57.2,52.7,30.17,West,264,0.0,0.0,85,0.00,,,0.00,VWS V13.01,2013-08-24 04:37:00,
2013-08-24 00:42:00,57.2,53.1,30.17,West,264,0.0,0.0,86,0.00,,,0.00,VWS V13.01,2013-08-24 04:42:00,
2013-08-24 00:47:00,57.2,53.1,30.17,West,264,0.0,0.0,86,0.00,,,0.00,VWS V13.01,2013-08-24 04:47:00,
2013-08-24 00:52:00,57.2,53.1,30.17,West,264,0.0,0.0,86,0.00,,,0.00,VWS V13.01,2013-08-24 04:52:00,
2013-08-24 00:57:00,57.2,53.4,30.17,West,264,0.0,0.0,87,0.00,,,0.00,VWS V13.01,2013-08-24 04:57:00,
2013-08-24 01:02:00,57.4,53.5,30.17,West,264,0.0,0.0,87,0.00,,,0.00,VWS V13.01,2013-08-24 05:02:00,
2013-08-24 01:07:00,57.2,53.4,30.17,West,264,0.0,0.0,87,0.00,,,0.00,VWS V13.01,2013-08-24 05:07:00,
2013-08-24 01:12:00,56.8,53.0,30.17,West,264,0.0,0.0,87,0.00,,,0.00,VWS V13.01,2013-08-24 05:12:00,
2013-08-24 01:17:00,56.7,52.5,30.17,West,264,0.0,0.0,86,0.00,,,0.00,VWS V13.01,2013-08-24 05:17:00,
2013-08-24 01:22:00,56.5,52.7,30.17,West,264,0.0,0.0,87,0.00,,,0.00,VWS V13.01,2013-08-24 05:22:00,
2013-08-24 01:27:00,56.5,53.0,30.17,West,264,0.0,0.0,88,0.00,,,0.00,VWS V13.01,2013-08-24 05:27:00,
2013-08-24 01:32:00,56.3,52.5,30.17,West,264,0.0,0.0,87,0.00,,,0.00,VWS V13.01,2013-08-24 05:32:00,
2013-08-24 01:37:00,56.1,52.3,30.17,West,264,0.0,0.0,87,0.00,,,0.00,VWS V13.01,2013-08-24 05:37:00,
2013-08-24 01:42:00,56.1,52.6,30.17,West,264,0.0,0.0,88,0.00,,,0.00,VWS V13.01,2013-08-24 05:42:00,
2013-08-24 01:47:00,55.9,52.4,30.17,West,264,0.0,0.0,88,0.00,,,0.00,VWS V13.01,2013-08-24 05:47:00,
2013-08-24 01:52:00,55.9,52.4,30.17,West,264,0.0,0.0,88,0.00,,,0.00,VWS V13.01,2013-08-24 05:52:00,
2013-08-24 01:57:00,55.8,52.3,30.17,West,264,0.0,0.0,88,0.00,,,0.00,VWS V13.01,2013-08-24 05:57:00,
2013-08-24 02:02:00,55.6,52.1,30.17,West,264,0.0,0.0,88,0.00,,,0.00,VWS V13.01,2013-08-24 06:02:00,
2013-08-24 02:07:00,55.4,51.9,30.17,West,264,0.0,0.0,88,0.00,,,0.00,VWS V13.01,2013-08-24 06:07:00,
2013-08-24 02:12:00,55.2,52.0,30.17,West,264,0.0,0.0,89,0.00,,,0.00,VWS V13.01,2013-08-24 06:12:00,
2013-08-24 02:17:00,55.2,52.3,30.17,West,264,0.0,0.0,90,0.00,,,0.00,VWS V13.01,2013-08-24 06:17:00,
2013-08-24 02:22:00,55.2,52.3,30.17,West,264,0.0,0.0,90,0.00,,,0.00,VWS V13.01,2013-08-24 06:22:00,
2013-08-24 02:27:00,55.0,52.2,30.17,West,264,0.0,0.0,90,0.00,,,0.00,VWS V13.01,2013-08-24 06:27:00,
2013-08-24 02:32:00,54.9,52.0,30.17,West,264,0.0,0.0,90,0.00,,,0.00,VWS V13.01,2013-08-24 06:32:00,
2013-08-24 02:37:00,54.9,52.0,30.17,West,264,0.0,0.0,90,0.00,,,0.00,VWS V13.01,2013-08-24 06:37:00,
2013-08-24 02:42:00,54.7,51.8,30.17,West,264,0.0,0.0,90,0.00,,,0.00,VWS V13.01,2013-08-24 06:42:00,
2013-08-24 02:47:00,54.5,51.6,30.17,West,264,0.0,0.0,90,0.00,,,0.00,VWS V13.01,2013-08-24 06:47:00,
2013-08-24 02:52:00,54.7,52.1,30.17,West,264,0.0,0.0,91,0.00,,,0.00,VWS V13.01,2013-08-24 06:52:00,
2013-08-24 02:57:00,54.7,52.1,30.17,West,264,0.0,0.0,91,0.00,,,0.00,VWS V13.01,2013-08-24 06:57:00,
2013-08-24 03:02:00,54.7,52.1,30.17,West,264,0.0,0.0,91,0.00,,,0.00,VWS V13.01,2013-08-24 07:02:00,
2013-08-24 03:07:00,54.5,51.9,30.17,West,264,0.0,0.0,91,0.00,,,0.00,VWS V13.01,2013-08-24 07:07:00,
2013-08-24 03:12:00,54.5,51.9,30.20,West,264,0.0,0.0,91,0.00,,,0.00,VWS V13.01,2013-08-24 07:12:00,
2013-08-24 03:18:00,54.7,52.4,30.20,West,264,0.0,0.0,92,0.00,,,0.00,VWS V13.01,2013-08-24 07:18:00,
2013-08-24 03:23:00,54.7,52.4,30.20,West,264,0.0,0.0,92,0.00,,,0.00,VWS V13.01,2013-08-24 07:23:00,
2013-08-24 03:28:00,54.7,52.4,30.20,West,264,0.0,0.0,92,0.00,,,0.00,VWS V13.01,2013-08-24 07:28:00,
2013-08-24 03:33:00,54.7,52.4,30.20,West,264,0.0,0.0,92,0.00,,,0.00,VWS V13.01,2013-08-24 07:33:00,
2013-08-24 03:38:00,54.7,52.4,30.20,West,264,0.0,0.0,92,0.00,,,0.00,VWS V13.01,2013-08-24 07:38:00,
2013-08-24 03:43:00,54.5,52.2,30.20,West,264,0.0,0.0,92,0.00,,,0.00,VWS V13.01,2013-08-24 07:43:00,
2013-08-24 03:48:00,54.3,51.8,30.20,West,264,0.0,0.0,91,0.00,,,0.00,VWS V13.01,2013-08-24 07:48:00,
2013-08-24 03:53:00,54.1,51.6,30.20,West,264,0.0,0.0,91,0.00,,,0.00,VWS V13.01,2013-08-24 07:53:00,
2013-08-24 03:58:00,53.8,51.2,30.20,West,264,0.0,0.0,91,0.00,,,0.00,VWS V13.01,2013-08-24 07:58:00,
2013-08-24 04:03:00,53.8,51.5,30.20,West,264,0.0,0.0,92,0.00,,,0.00,VWS V13.01,2013-08-24 08:03:00,
2013-08-24 04:08:00,53.8,51.5,30.20,West,264,0.0,0.0,92,0.00,,,0.00,VWS V13.01,2013-08-24 08:08:00,
2013-08-24 04:13:00,54.0,52.0,30.20,West,264,0.0,0.0,93,0.00,,,0.00,VWS V13.01,2013-08-24 08:13:00,
2013-08-24 04:18:00,54.0,52.0,30.20,West,264,0.0,0.0,93,0.00,,,0.00,VWS V13.01,2013-08-24 08:18:00,
2013-08-24 04:23:00,54.0,52.0,30.20,West,264,0.0,0.0,93,0.00,,,0.00,VWS V13.01,2013-08-24 08:23:00,
2013-08-24 04:28:00,53.8,51.8,30.20,West,264,0.0,0.0,93,0.00,,,0.00,VWS V13.01,2013-08-24 08:28:00,
2013-08-24 04:33:00,53.8,51.8,30.20,West,264,0.0,0.0,93,0.00,,,0.00,VWS V13.01,2013-08-24 08:33:00,
2013-08-24 04:38:00,53.6,51.3,30.20,West,264,0.0,0.0,92,0.00,,,0.00,VWS V13.01,2013-08-24 08:38:00,
2013-08-24 04:43:00,53.6,51.3,30.20,West,264,0.0,0.0,92,0.00,,,0.00,VWS V13.01,2013-08-24 08:43:00,
2013-08-24 04:48:00,53.4,51.5,30.20,West,264,0.0,0.0,93,0.00,,,0.00,VWS V13.01,2013-08-24 08:48:00,
2013-08-24 04:53:00,53.2,51.3,30.20,West,264,0.0,0.0,93,0.00,,,0.00,VWS V13.01,2013-08-24 08:53:00,
2013-08-24 04:58:00,53.1,51.1,30.20,West,264,0.0,0.0,93,0.00,,,0.00,VWS V13.01,2013-08-24 08:58:00,
2013-08-24 05:02:00,53.1,51.1,30.20,West,264,0.0,0.0,93,0.00,,,0.00,VWS V13.01,2013-08-24 09:02:00,
2013-08-24 05:07:00,53.1,51.1,30.20,West,264,0.0,0.0,93,0.00,,,0.00,VWS V13.01,2013-08-24 09:07:00,
2013-08-24 05:12:00,53.1,51.4,30.23,West,264,0.0,0.0,94,0.00,,,0.00,VWS V13.01,2013-08-24 09:12:00,
2013-08-24 05:17:00,53.1,51.4,30.23,West,264,0.0,0.0,94,0.00,,,0.00,VWS V13.01,2013-08-24 09:17:00,
2013-08-24 05:22:00,53.1,51.7,30.23,West,264,0.0,0.0,95,0.00,,,0.00,VWS V13.01,2013-08-24 09:22:00,
2013-08-24 05:27:00,53.1,51.4,30.23,West,264,0.0,0.0,94,0.00,,,0.00,VWS V13.01,2013-08-24 09:27:00,
2013-08-24 05:32:00,53.1,51.4,30.23,West,264,0.0,0.0,94,0.00,,,0.00,VWS V13.01,2013-08-24 09:32:00,
2013-08-24 05:37:00,52.9,51.2,30.23,West,264,0.0,0.0,94,0.00,,,0.00,VWS V13.01,2013-08-24 09:37:00,
2013-08-24 05:42:00,52.5,50.6,30.23,West,264,0.0,0.0,93,0.00,,,0.00,VWS V13.01,2013-08-24 09:42:00,
2013-08-24 05:47:00,52.3,50.4,30.23,West,264,0.0,0.0,93,0.00,,,0.00,VWS V13.01,2013-08-24 09:47:00,
2013-08-24 05:52:00,52.2,50.5,30.23,West,264,0.0,0.0,94,0.00,,,0.00,VWS V13.01,2013-08-24 09:52:00,
2013-08-24 05:57:00,52.2,50.5,30.23,West,264,0.0,0.0,94,0.00,,,0.00,VWS V13.01,2013-08-24 09:57:00,
2013-08-24 06:02:00,52.2,50.5,30.23,West,264,0.0,0.0,94,0.00,,,0.00,VWS V13.01,2013-08-24 10:02:00,
2013-08-24 06:07:00,52.3,51.0,30.23,West,264,0.0,0.0,95,0.00,,,0.00,VWS V13.01,2013-08-24 10:07:00,
2013-08-24 06:12:00,52.3,51.0,30.23,West,264,0.0,0.0,95,0.00,,,0.00,VWS V13.01,2013-08-24 10:12:00,
2013-08-24 06:17:00,52.5,51.1,30.23,West,264,0.0,0.0,95,0.00,,,0.00,VWS V13.01,2013-08-24 10:17:00,
2013-08-24 06:22:00,52.5,51.1,30.23,West,264,0.0,0.0,95,0.00,,,0.00,VWS V13.01,2013-08-24 10:22:00,
2013-08-24 06:27:00,52.5,51.1,30.23,West,264,0.0,0.0,95,0.00,,,0.00,VWS V13.01,2013-08-24 10:27:00,
2013-08-24 06:32:00,52.5,51.1,30.23,West,264,0.0,0.0,95,0.00,,,0.00,VWS V13.01,2013-08-24 10:32:00,
2013-08-24 06:37:00,52.7,51.3,30.23,West,264,0.0,0.0,95,0.00,,,0.00,VWS V13.01,2013-08-24 10:37:00,
2013-08-24 06:42:00,52.5,51.1,30.23,West,264,0.0,0.0,95,0.00,,,0.00,VWS V13.01,2013-08-24 10:42:00,
2013-08-24 06:47:00,52.5,51.1,30.23,West,264,0.0,0.0,95,0.00,,,0.00,VWS V13.01,2013-08-24 10:47:00,
2013-08-24 06:52:00,52.7,51.6,30.23,West,264,0.0,0.0,96,0.00,,,0.00,VWS V13.01,2013-08-24 10:52:00,
2013-08-24 06:57:00,52.9,51.8,30.26,West,264,0.0,0.0,96,0.00,,,0.00,VWS V13.01,2013-08-24 10:57:00,
2013-08-24 07:02:00,52.9,51.8,30.26,West,264,0.0,0.0,96,0.00,,,0.00,VWS V13.01,2013-08-24 11:02:00,
2013-08-24 07:07:00,53.1,52.0,30.26,West,264,0.0,0.0,96,0.00,,,0.00,VWS V13.01,2013-08-24 11:07:00,
2013-08-24 07:12:00,53.2,52.1,30.26,West,264,0.0,0.0,96,0.00,,,0.00,VWS V13.01,2013-08-24 11:12:00,
2013-08-24 07:17:00,53.4,52.3,30.26,West,264,0.0,0.0,96,0.00,,,0.00,VWS V13.01,2013-08-24 11:17:00,
2013-08-24 07:22:00,53.8,52.7,30.26,West,264,0.0,0.0,96,0.00,,,0.00,VWS V13.01,2013-08-24 11:22:00,
2013-08-24 07:27:00,54.1,53.0,30.26,West,264,0.0,0.0,96,0.00,,,0.00,VWS V13.01,2013-08-24 11:27:00,
2013-08-24 07:32:00,54.3,53.2,30.26,West,264,0.0,0.0,96,0.00,,,0.00,VWS V13.01,2013-08-24 11:32:00,
2013-08-24 07:37:00,54.5,53.4,30.26,West,264,0.0,0.0,96,0.00,,,0.00,VWS V13.01,2013-08-24 11:37:00,
2013-08-24 07:42:00,54.5,53.4,30.26,West,264,0.0,0.0,96,0.00,,,0.00,VWS V13.01,2013-08-24 11:42:00,
2013-08-24 07:47:00,54.9,53.7,30.26,West,264,0.0,0.0,96,0.00,,,0.00,VWS V13.01,2013-08-24 11:47:00,
2013-08-24 07:52:00,55.0,53.9,30.26,West,264,0.0,0.0,96,0.00,,,0.00,VWS V13.01,2013-08-24 11:52:00,
2013-08-24 07:57:00,55.0,53.9,30.26,West,264,0.0,0.0,96,0.00,,,0.00,VWS V13.01,2013-08-24 11:57:00,
2013-08-24 08:02:00,55.2,54.1,30.26,West,264,0.0,0.0,96,0.00,,,0.00,VWS V13.01,2013-08-24 12:02:00,
2013-08-24 08:07:00,55.8,54.6,30.26,SE,137,0.0,0.0,96,0.00,,,0.00,VWS V13.01,2013-08-24 12:07:00,
2013-08-24 08:12:00,55.9,54.8,30.29,SE,137,0.0,0.0,96,0.00,,,0.00,VWS V13.01,2013-08-24 12:12:00,
2013-08-24 08:17:00,56.3,55.2,30.29,SE,140,0.0,0.0,96,0.00,,,0.00,VWS V13.01,2013-08-24 12:17:00,
2013-08-24 08:22:00,56.5,55.4,30.29,SSE,148,0.0,0.0,96,0.00,,,0.00,VWS V13.01,2013-08-24 12:22:00,
2013-08-24 08:27:00,56.7,55.5,30.29,SSE,148,0.0,0.0,96,0.00,,,0.00,VWS V13.01,2013-08-24 12:27:00,
2013-08-24 08:32:00,56.7,55.5,30.29,SSE,148,0.0,2.8,96,0.00,,,0.00,VWS V13.01,2013-08-24 12:32:00,
2013-08-24 08:37:00,57.2,56.1,30.29,SE,144,0.0,0.0,96,0.00,,,0.00,VWS V13.01,2013-08-24 12:37:00,
2013-08-24 08:42:00,57.6,56.4,30.29,SE,143,2.8,2.8,96,0.00,,,0.00,VWS V13.01,2013-08-24 12:42:00,
2013-08-24 08:47:00,57.9,56.5,30.29,SE,143,0.0,0.0,95,0.00,,,0.00,VWS V13.01,2013-08-24 12:47:00,
2013-08-24 08:52:00,58.6,57.2,30.29,ESE,115,0.0,2.8,95,0.00,,,0.00,VWS V13.01,2013-08-24 12:52:00,
2013-08-24 08:57:00,59.4,57.6,30.29,ESE,119,0.0,2.8,94,0.00,,,0.00,VWS V13.01,2013-08-24 12:57:00,
2013-08-24 09:02:00,59.4,57.6,30.29,ESE,119,0.0,0.0,94,0.00,,,0.00,VWS V13.01,2013-08-24 13:02:00,
2013-08-24 09:07:00,59.2,57.5,30.29,SSE,149,0.0,0.0,94,0.00,,,0.00,VWS V13.01,2013-08-24 13:07:00,
2013-08-24 09:12:00,58.8,57.1,30.29,SW,225,0.0,0.0,94,0.00,,,0.00,VWS V13.01,2013-08-24 13:12:00,
2013-08-24 09:17:00,59.0,57.6,30.29,WSW,241,2.8,2.8,95,0.00,,,0.00,VWS V13.01,2013-08-24 13:17:00,
2013-08-24 09:22:00,59.2,57.8,30.29,WSW,241,0.0,0.0,95,0.00,,,0.00,VWS V13.01,2013-08-24 13:22:00,
2013-08-24 09:27:00,59.4,58.2,30.29,WSW,241,0.0,0.0,96,0.00,,,0.00,VWS V13.01,2013-08-24 13:27:00,
2013-08-24 09:32:00,59.7,58.6,30.29,WSW,241,0.0,0.0,96,0.00,,,0.00,VWS V13.01,2013-08-24 13:32:00,
2013-08-24 09:37:00,60.3,59.1,30.29,WSW,241,0.0,0.0,96,0.00,,,0.00,VWS V13.01,2013-08-24 13:37:00,
2013-08-24 09:42:00,61.0,59.5,30.29,WSW,241,0.0,0.0,95,0.00,,,0.00,VWS V13.01,2013-08-24 13:42:00,
2013-08-24 09:47:00,61.9,60.4,30.29,SSW,194,0.0,0.0,95,0.00,,,0.00,VWS V13.01,2013-08-24 13:47:00,
2013-08-24 09:52:00,63.3,62.2,30.29,South,175,0.0,0.0,96,0.00,,,0.00,VWS V13.01,2013-08-24 13:52:00,
2013-08-24 09:57:00,64.4,62.9,30.29,SSE,157,2.8,3.9,95,0.00,,OVC003,0.00,VWS V13.01,2013-08-24 13:57:00,
2013-08-24 10:02:00,65.7,64.2,30.29,ESE,114,0.0,2.8,95,0.00,,OVC003,0.00,VWS V13.01,2013-08-24 14:02:00,
2013-08-24 10:07:00,66.6,64.5,30.29,SE,128,2.8,3.9,93,0.00,,OVC003,0.00,VWS V13.01,2013-08-24 14:07:00,
2013-08-24 10:12:00,67.1,64.7,30.29,ENE,71,3.4,3.4,92,0.00,,OVC003,0.00,VWS V13.01,2013-08-24 14:12:00,
2013-08-24 10:17:00,67.5,64.4,30.29,ESE,102,0.0,0.0,90,0.00,,OVC003,0.00,VWS V13.01,2013-08-24 14:17:00,
2013-08-24 10:22:00,67.8,62.8,30.29,SE,142,0.0,0.0,84,0.00,,OVC003,0.00,VWS V13.01,2013-08-24 14:22:00,
2013-08-24 10:27:00,68.4,62.7,30.32,NE,38,0.0,2.8,82,0.00,,OVC003,0.00,VWS V13.01,2013-08-24 14:27:00,
2013-08-24 10:32:00,68.7,60.9,30.32,ESE,118,0.0,0.0,76,0.00,,OVC003,0.00,VWS V13.01,2013-08-24 14:32:00,
2013-08-24 10:37:00,69.1,60.8,30.32,SE,143,2.8,3.9,75,0.00,,OVC003,0.00,VWS V13.01,2013-08-24 14:37:00,
2013-08-24 10:42:00,69.3,59.9,30.32,NE,39,5.0,5.0,72,0.00,,OVC003,0.00,VWS V13.01,2013-08-24 14:42:00,
2013-08-24 10:47:00,69.4,58.8,30.32,ESE,111,0.0,3.9,69,0.00,,OVC003,0.00,VWS V13.01,2013-08-24 14:47:00,
2013-08-24 10:52:00,70.0,59.0,30.32,East,89,0.0,3.9,68,0.00,,OVC003,0.00,VWS V13.01,2013-08-24 14:52:00,
2013-08-24 10:57:00,70.5,59.5,30.32,East,89,0.0,0.0,68,0.00,,BKN005,0.00,VWS V13.01,2013-08-24 14:57:00,
2013-08-24 11:02:00,70.9,57.2,30.32,SE,132,3.9,5.0,62,0.00,,BKN005,0.00,VWS V13.01,2013-08-24 15:02:00,
2013-08-24 11:07:00,70.9,55.8,30.32,ENE,76,3.4,3.4,59,0.00,,BKN005,0.00,VWS V13.01,2013-08-24 15:07:00,
2013-08-24 11:12:00,71.2,56.7,30.32,NE,41,3.9,6.2,60,0.00,,BKN005,0.00,VWS V13.01,2013-08-24 15:12:00,
2013-08-24 11:17:00,71.4,55.9,30.32,WSW,246,2.8,3.9,58,0.00,,BKN005,0.00,VWS V13.01,2013-08-24 15:17:00,
2013-08-24 11:22:00,72.0,56.9,30.32,East,82,0.0,3.9,59,0.00,,SCT007,0.00,VWS V13.01,2013-08-24 15:22:00,
2013-08-24 11:27:00,72.5,56.4,30.32,NE,55,0.0,5.0,57,0.00,,SCT007,0.00,VWS V13.01,2013-08-24 15:27:00,
2013-08-24 11:32:00,72.5,56.4,30.32,SSE,151,5.0,7.3,57,0.00,,SCT007,0.00,VWS V13.01,2013-08-24 15:32:00,
2013-08-24 11:37:00,72.5,55.9,30.32,South,178,3.9,3.9,56,0.00,,SCT007,0.00,VWS V13.01,2013-08-24 15:37:00,
2013-08-24 11:42:00,72.7,56.6,30.32,SE,141,3.4,3.4,57,0.00,,SCT007,0.00,VWS V13.01,2013-08-24 15:42:00,
2013-08-24 11:47:00,73.2,57.1,30.32,SSE,155,5.0,5.0,57,0.00,,SCT007,0.00,VWS V13.01,2013-08-24 15:47:00,
2013-08-24 11:52:00,73.6,56.9,30.32,East,101,3.4,4.5,56,0.00,,SCT007,0.00,VWS V13.01,2013-08-24 15:52:00,
2013-08-24 11:57:00,73.9,56.8,30.32,WSW,252,2.8,5.0,55,0.00,,SCT009,0.00,VWS V13.01,2013-08-24 15:57:00,
2013-08-24 12:02:00,73.9,55.8,30.32,SSE,159,3.4,3.4,53,0.00,,SCT009,0.00,VWS V13.01,2013-08-24 16:02:00,
2013-08-24 12:07:00,74.1,56.9,30.32,NNW,344,0.0,0.0,55,0.00,,SCT009,0.00,VWS V13.01,2013-08-24 16:07:00,
2013-08-24 12:12:00,74.1,56.4,30.29,North,7,2.8,4.5,54,0.00,,SCT009,0.00,VWS V13.01,2013-08-24 16:12:00,
2013-08-24 12:17:00,74.5,56.8,30.29,East,101,3.9,4.5,54,0.00,,SCT009,0.00,VWS V13.01,2013-08-24 16:17:00,
2013-08-24 12:22:00,74.1,55.9,30.29,NE,56,0.0,0.0,53,0.00,,CLR,0.00,VWS V13.01,2013-08-24 16:22:00,
2013-08-24 12:27:00,74.7,57.4,30.29,SSE,158,3.9,3.9,55,0.00,,CLR,0.00,VWS V13.01,2013-08-24 16:27:00,
2013-08-24 12:32:00,75.6,58.3,30.29,South,184,4.5,5.0,55,0.00,,CLR,0.00,VWS V13.01,2013-08-24 16:32:00,
2013-08-24 12:37:00,76.1,57.8,30.29,NE,51,0.0,6.7,53,0.00,,CLR,0.00,VWS V13.01,2013-08-24 16:37:00,
2013-08-24 12:42:00,75.9,56.0,30.29,SE,136,3.9,3.9,50,0.00,,CLR,0.00,VWS V13.01,2013-08-24 16:42:00,
2013-08-24 12:47:00,76.3,56.3,30.29,ENE,74,3.4,3.4,50,0.00,,CLR,0.00,VWS V13.01,2013-08-24 16:47:00,
2013-08-24 12:52:00,76.3,55.7,30.29,North,3,2.8,4.5,49,0.00,,CLR,0.00,VWS V13.01,2013-08-24 16:52:00,
2013-08-24 12:57:00,76.3,54.6,30.29,ESE,114,3.9,7.3,47,0.00,,CLR,0.00,VWS V13.01,2013-08-24 16:57:00,
2013-08-24 13:02:00,76.6,54.9,30.29,East,81,4.5,4.5,47,0.00,,CLR,0.00,VWS V13.01,2013-08-24 17:02:00,
2013-08-24 13:07:00,77.0,54.7,30.29,East,83,0.0,4.5,46,0.00,,CLR,0.00,VWS V13.01,2013-08-24 17:07:00,
2013-08-24 13:12:00,76.6,54.3,30.29,North,8,3.4,7.3,46,0.00,,CLR,0.00,VWS V13.01,2013-08-24 17:12:00,
2013-08-24 13:17:00,75.9,53.7,30.29,NNE,21,0.0,4.5,46,0.00,,CLR,0.00,VWS V13.01,2013-08-24 17:17:00,
2013-08-24 13:22:00,76.3,54.6,30.29,SSE,149,0.0,0.0,47,0.00,,CLR,0.00,VWS V13.01,2013-08-24 17:22:00,
2013-08-24 13:27:00,77.2,55.4,30.29,SE,129,3.9,6.7,47,0.00,,CLR,0.00,VWS V13.01,2013-08-24 17:27:00,
2013-08-24 13:32:00,77.7,55.3,30.29,ESE,110,2.8,5.0,46,0.00,,CLR,0.00,VWS V13.01,2013-08-24 17:32:00,
2013-08-24 13:37:00,78.3,56.4,30.29,East,84,3.9,5.0,47,0.00,,CLR,0.00,VWS V13.01,2013-08-24 17:37:00,
2013-08-24 13:42:00,78.3,55.8,30.29,NE,45,0.0,3.9,46,0.00,,CLR,0.00,VWS V13.01,2013-08-24 17:42:00,
2013-08-24 13:47:00,78.4,56.0,30.29,ESE,107,0.0,4.5,46,0.00,,CLR,0.00,VWS V13.01,2013-08-24 17:47:00,
2013-08-24 13:52:00,78.4,56.0,30.29,East,97,0.0,5.0,46,0.00,,CLR,0.00,VWS V13.01,2013-08-24 17:52:00,
2013-08-24 13:57:00,78.6,56.1,30.29,SE,133,3.9,4.5,46,0.00,,CLR,0.00,VWS V13.01,2013-08-24 17:57:00,
2013-08-24 14:02:00,77.9,54.9,30.29,ENE,62,6.7,6.7,45,0.00,,CLR,0.00,VWS V13.01,2013-08-24 18:02:00,
2013-08-24 14:07:00,78.1,55.6,30.29,East,100,7.3,10.1,46,0.00,,CLR,0.00,VWS V13.01,2013-08-24 18:07:00,
2013-08-24 14:12:00,78.6,56.1,30.29,East,100,7.3,7.3,46,0.00,,CLR,0.00,VWS V13.01,2013-08-24 18:12:00,
2013-08-24 14:17:00,78.6,55.5,30.29,NE,49,7.3,7.3,45,0.00,,CLR,0.00,VWS V13.01,2013-08-24 18:17:00,
2013-08-24 14:22:00,78.6,55.5,30.29,ENE,67,5.0,7.3,45,0.00,,CLR,0.00,VWS V13.01,2013-08-24 18:22:00,
2013-08-24 14:27:00,79.0,54.0,30.29,ENE,57,6.7,6.7,42,0.00,,CLR,0.00,VWS V13.01,2013-08-24 18:27:00,
2013-08-24 14:32:00,79.2,56.0,30.29,ENE,57,6.7,6.7,45,0.00,,CLR,0.00,VWS V13.01,2013-08-24 18:32:00,
2013-08-24 14:37:00,79.2,54.1,30.29,ENE,57,6.7,6.7,42,0.00,,SCT036,0.00,VWS V13.01,2013-08-24 18:37:00,
2013-08-24 14:42:00,78.8,55.7,30.29,East,89,7.3,7.8,45,0.00,,SCT036,0.00,VWS V13.01,2013-08-24 18:42:00,
2013-08-24 14:47:00,78.6,54.3,30.29,ESE,116,6.7,6.7,43,0.00,,SCT036,0.00,VWS V13.01,2013-08-24 18:47:00,
2013-08-24 14:52:00,79.0,54.0,30.29,ENE,65,5.0,6.7,42,0.00,,SCT036,0.00,VWS V13.01,2013-08-24 18:52:00,
2013-08-24 14:57:00,79.3,54.3,30.29,ENE,78,5.0,6.7,42,0.00,,SCT036,0.00,VWS V13.01,2013-08-24 18:57:00,
2013-08-24 15:02:00,79.5,56.3,30.29,East,88,10.3,10.3,45,0.00,,CLR,0.00,VWS V13.01,2013-08-24 19:02:00,
2013-08-24 15:07:00,79.7,56.5,30.29,ENE,78,6.7,7.3,45,0.00,,CLR,0.00,VWS V13.01,2013-08-24 19:07:00,
2013-08-24 15:12:00,79.3,56.2,30.29,SE,140,7.3,9.5,45,0.00,,CLR,0.00,VWS V13.01,2013-08-24 19:12:00,
2013-08-24 15:17:00,78.8,55.7,30.29,ESE,113,6.7,7.3,45,0.00,,CLR,0.00,VWS V13.01,2013-08-24 19:17:00,
2013-08-24 15:22:00,78.6,55.5,30.29,SE,129,4.5,7.3,45,0.00,,SCT080,0.00,VWS V13.01,2013-08-24 19:22:00,
2013-08-24 15:27:00,78.8,55.7,30.29,SSE,153,6.7,9.5,45,0.00,,SCT080,0.00,VWS V13.01,2013-08-24 19:27:00,
2013-08-24 15:32:00,78.8,55.7,30.29,SSE,156,5.0,7.3,45,0.00,,SCT080,0.00,VWS V13.01,2013-08-24 19:32:00,
2013-08-24 15:37:00,79.0,55.8,30.29,SE,141,4.5,9.5,45,0.00,,SCT080,0.00,VWS V13.01,2013-08-24 19:37:00,
2013-08-24 15:42:00,79.3,56.2,30.29,East,94,7.3,10.1,45,0.00,,SCT080,0.00,VWS V13.01,2013-08-24 19:42:00,
2013-08-24 15:47:00,79.5,56.3,30.29,ESE,112,5.0,7.8,45,0.00,,SCT080,0.00,VWS V13.01,2013-08-24 19:47:00,
2013-08-24 15:52:00,79.3,56.2,30.29,East,97,6.7,7.8,45,0.00,,SCT080,0.00,VWS V13.01,2013-08-24 19:52:00,
2013-08-24 15:57:00,79.2,56.0,30.29,SE,126,6.7,7.3,45,0.00,,CLR,0.00,VWS V13.01,2013-08-24 19:57:00,
2013-08-24 16:02:00,78.6,55.5,30.29,ESE,104,10.1,10.1,45,0.00,,CLR,0.00,VWS V13.01,2013-08-24 20:02:00,
2013-08-24 16:07:00,78.4,55.4,30.29,ENE,76,10.1,10.3,45,0.00,,CLR,0.00,VWS V13.01,2013-08-24 20:07:00,
2013-08-24 16:12:00,78.3,55.2,30.26,East,89,3.4,6.2,45,0.00,,CLR,0.00,VWS V13.01,2013-08-24 20:12:00,
2013-08-24 16:17:00,78.6,55.5,30.26,South,170,6.2,6.2,45,0.00,,CLR,0.00,VWS V13.01,2013-08-24 20:17:00,
2013-08-24 16:22:00,79.0,54.0,30.26,ESE,104,6.7,9.5,42,0.00,,CLR,0.00,VWS V13.01,2013-08-24 20:22:00,
2013-08-24 16:27:00,79.2,56.0,30.26,ESE,110,5.6,10.1,45,0.00,,CLR,0.00,VWS V13.01,2013-08-24 20:27:00,
2013-08-24 16:32:00,79.2,54.1,30.26,East,92,4.5,8.4,42,0.00,,CLR,0.00,VWS V13.01,2013-08-24 20:32:00,
2013-08-24 16:37:00,79.0,54.0,30.26,ESE,118,7.8,7.8,42,0.00,,CLR,0.00,VWS V13.01,2013-08-24 20:37:00,
2013-08-24 16:42:00,78.6,54.3,30.26,ESE,107,7.8,10.9,43,0.00,,CLR,0.00,VWS V13.01,2013-08-24 20:42:00,
2013-08-24 16:47:00,78.1,53.8,30.26,East,100,7.3,7.8,43,0.00,,CLR,0.00,VWS V13.01,2013-08-24 20:47:00,
2013-08-24 16:52:00,77.4,53.1,30.26,East,79,5.0,7.8,43,0.00,,CLR,0.00,VWS V13.01,2013-08-24 20:52:00,
2013-08-24 16:57:00,76.6,52.5,30.26,SE,133,9.5,9.5,43,0.00,,CLR,0.00,VWS V13.01,2013-08-24 20:57:00,
2013-08-24 17:02:00,76.3,52.2,30.26,SE,141,7.8,7.8,43,0.00,,CLR,0.00,VWS V13.01,2013-08-24 21:02:00,
2013-08-24 17:07:00,76.1,53.2,30.26,East,84,6.7,6.7,45,0.00,,CLR,0.00,VWS V13.01,2013-08-24 21:07:00,
2013-08-24 17:12:00,75.9,53.1,30.26,SE,141,10.1,10.1,45,0.00,,CLR,0.00,VWS V13.01,2013-08-24 21:12:00,
2013-08-24 17:17:00,75.7,52.9,30.26,ESE,104,5.0,7.8,45,0.00,,,0.00,VWS V13.01,2013-08-24 21:17:00,
2013-08-24 17:22:00,75.7,52.9,30.26,ESE,113,7.3,9.5,45,0.00,,,0.00,VWS V13.01,2013-08-24 21:22:00,
2013-08-24 17:27:00,75.7,52.9,30.26,ESE,111,7.8,7.8,45,0.00,,,0.00,VWS V13.01,2013-08-24 21:27:00,
2013-08-24 17:32:00,75.6,51.5,30.26,ESE,103,5.0,7.8,43,0.00,,,0.00,VWS V13.01,2013-08-24 21:32:00,
2013-08-24 17:37:00,75.4,51.3,30.26,East,80,4.5,6.7,43,0.00,,CLR,0.00,VWS V13.01,2013-08-24 21:37:00,
2013-08-24 17:42:00,75.6,52.8,30.29,SE,129,4.5,7.3,45,0.00,,CLR,0.00,VWS V13.01,2013-08-24 21:42:00,
2013-08-24 17:47:00,75.6,51.5,30.29,SE,129,7.3,7.8,43,0.00,,CLR,0.00,VWS V13.01,2013-08-24 21:47:00,
2013-08-24 17:52:00,75.7,51.7,30.29,SSE,164,6.7,7.8,43,0.00,,CLR,0.00,VWS V13.01,2013-08-24 21:52:00,
2013-08-24 17:57:00,75.6,52.8,30.29,ESE,116,6.7,7.3,45,0.00,,CLR,0.00,VWS V13.01,2013-08-24 21:57:00,
2013-08-24 18:02:00,75.6,52.8,30.29,East,93,7.8,9.5,45,0.00,,SCT055,0.00,VWS V13.01,2013-08-24 22:02:00,
2013-08-24 18:07:00,75.6,52.8,30.29,East,101,3.9,6.7,45,0.00,,SCT055,0.00,VWS V13.01,2013-08-24 22:07:00,
2013-08-24 18:12:00,75.4,52.6,30.29,ESE,115,5.0,7.8,45,0.00,,SCT055,0.00,VWS V13.01,2013-08-24 22:12:00,
2013-08-24 18:17:00,75.4,52.6,30.29,SSE,147,3.9,7.3,45,0.00,,SCT055,0.00,VWS V13.01,2013-08-24 22:17:00,
2013-08-24 18:22:00,75.2,52.4,30.29,SE,130,6.7,10.3,45,0.00,,SCT055,0.00,VWS V13.01,2013-08-24 22:22:00,
2013-08-24 18:27:00,75.0,52.9,30.26,ESE,110,6.2,6.7,46,0.00,,SCT055,0.00,VWS V13.01,2013-08-24 22:27:00,
2013-08-24 18:32:00,74.8,52.7,30.26,ESE,113,6.2,6.2,46,0.00,,SCT055,0.00,VWS V13.01,2013-08-24 22:32:00,
2013-08-24 18:37:00,74.7,52.5,30.26,East,85,5.0,7.3,46,0.00,,SCT055,0.00,VWS V13.01,2013-08-24 22:37:00,
2013-08-24 18:42:00,74.5,52.4,30.26,East,84,6.2,6.2,46,0.00,,CLR,0.00,VWS V13.01,2013-08-24 22:42:00,
2013-08-24 18:47:00,74.1,52.0,30.26,ESE,104,4.5,6.2,46,0.00,,CLR,0.00,VWS V13.01,2013-08-24 22:47:00,
2013-08-24 18:52:00,73.9,51.9,30.26,ENE,74,5.0,7.8,46,0.00,,CLR,0.00,VWS V13.01,2013-08-24 22:52:00,
2013-08-24 18:57:00,73.6,51.5,30.26,East,91,3.9,3.9,46,0.00,,CLR,0.00,VWS V13.01,2013-08-24 22:57:00,
2013-08-24 19:02:00,73.4,51.4,30.26,ESE,118,4.5,5.0,46,0.00,,CLR,0.00,VWS V13.01,2013-08-24 23:02:00,
2013-08-24 19:07:00,73.2,51.8,30.26,East,96,4.5,6.7,47,0.00,,CLR,0.00,VWS V13.01,2013-08-24 23:07:00,
2013-08-24 19:12:00,73.0,51.6,30.26,East,91,5.0,7.3,47,0.00,,CLR,0.00,VWS V13.01,2013-08-24 23:12:00,
2013-08-24 19:17:00,72.9,51.5,30.26,SE,136,2.8,3.9,47,0.00,,CLR,0.00,VWS V13.01,2013-08-24 23:17:00,
2013-08-24 19:22:00,72.5,51.2,30.26,ESE,112,3.4,3.4,47,0.00,,CLR,0.00,VWS V13.01,2013-08-24 23:22:00,
2013-08-24 19:27:00,72.3,51.0,30.29,ESE,110,0.0,0.0,47,0.00,,CLR,0.00,VWS V13.01,2013-08-24 23:27:00,
2013-08-24 19:32:00,72.0,50.7,30.29,ESE,110,0.0,0.0,47,0.00,,CLR,0.00,VWS V13.01,2013-08-24 23:32:00,
2013-08-24 19:37:00,71.6,50.3,30.29,ESE,115,0.0,0.0,47,0.00,,CLR,0.00,VWS V13.01,2013-08-24 23:37:00,
2013-08-24 19:42:00,71.1,50.4,30.29,ESE,115,0.0,0.0,48,0.00,,CLR,0.00,VWS V13.01,2013-08-24 23:42:00,
2013-08-24 19:47:00,70.7,50.1,30.29,ESE,115,0.0,0.0,48,0.00,,CLR,0.00,VWS V13.01,2013-08-24 23:47:00,
2013-08-24 19:52:00,70.0,50.0,30.29,ESE,115,0.0,0.0,49,0.00,,CLR,0.00,VWS V13.01,2013-08-24 23:52:00,
2013-08-24 19:57:00,69.4,50.0,30.29,ESE,115,0.0,0.0,50,0.00,,,0.00,VWS V13.01,2013-08-24 23:57:00,
2013-08-24 20:02:00,68.9,50.0,30.29,ESE,115,0.0,0.0,51,0.00,,,0.00,VWS V13.01,2013-08-25 00:02:00,
2013-08-24 20:07:00,68.4,49.5,30.29,ESE,115,0.0,0.0,51,0.00,,,0.00,VWS V13.01,2013-08-25 00:07:00,
2013-08-24 20:12:00,67.8,49.6,30.29,ESE,115,0.0,0.0,52,0.00,,,0.00,VWS V13.01,2013-08-25 00:12:00,
2013-08-24 20:17:00,67.1,49.4,30.29,ESE,115,0.0,0.0,53,0.00,,CLR,0.00,VWS V13.01,2013-08-25 00:17:00,
2013-08-24 20:22:00,66.6,49.4,30.29,ESE,115,0.0,0.0,54,0.00,,CLR,0.00,VWS V13.01,2013-08-25 00:22:00,
2013-08-24 20:27:00,66.0,49.9,30.29,ESE,115,0.0,0.0,56,0.00,,CLR,0.00,VWS V13.01,2013-08-25 00:27:00,
2013-08-24 20:32:00,65.7,50.0,30.29,ESE,115,0.0,0.0,57,0.00,,CLR,0.00,VWS V13.01,2013-08-25 00:32:00,
2013-08-24 20:37:00,65.3,50.2,30.29,ESE,115,0.0,0.0,58,0.00,,CLR,0.00,VWS V13.01,2013-08-25 00:37:00,
2013-08-24 20:42:00,64.9,49.8,30.29,ESE,115,0.0,0.0,58,0.00,,CLR,0.00,VWS V13.01,2013-08-25 00:42:00,
2013-08-24 20:47:00,64.4,49.3,30.29,ESE,115,0.0,0.0,58,0.00,,CLR,0.00,VWS V13.01,2013-08-25 00:47:00,
2013-08-24 20:52:00,64.2,49.6,30.29,ESE,115,0.0,0.0,59,0.00,,CLR,0.00,VWS V13.01,2013-08-25 00:52:00,
2013-08-24 20:57:00,63.7,49.1,30.29,ESE,115,0.0,0.0,59,0.00,,CLR,0.00,VWS V13.01,2013-08-25 00:57:00,
2013-08-24 21:02:00,63.3,48.8,30.29,ESE,115,0.0,0.0,59,0.00,,CLR,0.00,VWS V13.01,2013-08-25 01:02:00,
2013-08-24 21:07:00,63.1,49.0,30.29,ESE,115,0.0,0.0,60,0.00,,CLR,0.00,VWS V13.01,2013-08-25 01:07:00,
2013-08-24 21:12:00,62.8,48.7,30.32,ESE,115,0.0,0.0,60,0.00,,CLR,0.00,VWS V13.01,2013-08-25 01:12:00,
2013-08-24 21:17:00,62.6,49.0,30.32,ESE,115,0.0,0.0,61,0.00,,CLR,0.00,VWS V13.01,2013-08-25 01:17:00,
2013-08-24 21:22:00,62.6,49.4,30.32,ESE,115,0.0,0.0,62,0.00,,CLR,0.00,VWS V13.01,2013-08-25 01:22:00,
2013-08-24 21:27:00,62.4,50.5,30.32,ESE,115,0.0,0.0,65,0.00,,CLR,0.00,VWS V13.01,2013-08-25 01:27:00,
2013-08-24 21:32:00,62.1,51.0,30.32,ESE,115,0.0,0.0,67,0.00,,CLR,0.00,VWS V13.01,2013-08-25 01:32:00,
2013-08-24 21:37:00,61.9,50.8,30.32,ESE,115,0.0,0.0,67,0.00,,CLR,0.00,VWS V13.01,2013-08-25 01:37:00,
2013-08-24 21:42:00,61.7,51.0,30.32,ESE,115,0.0,0.0,68,0.00,,CLR,0.00,VWS V13.01,2013-08-25 01:42:00,
2013-08-24 21:47:00,61.5,51.3,30.32,SW,227,0.0,0.0,69,0.00,,CLR,0.00,VWS V13.01,2013-08-25 01:47:00,
2013-08-24 21:52:00,61.5,51.3,30.32,NW,306,0.0,0.0,69,0.00,,CLR,0.00,VWS V13.01,2013-08-25 01:52:00,
2013-08-24 21:57:00,61.3,51.5,30.32,NW,306,0.0,0.0,70,0.00,,CLR,0.00,VWS V13.01,2013-08-25 01:57:00,
2013-08-24 22:02:00,61.3,51.5,30.32,West,268,0.0,0.0,70,0.00,,CLR,0.00,VWS V13.01,2013-08-25 02:02:00,
2013-08-24 22:07:00,61.3,51.5,30.32,West,267,0.0,0.0,70,0.00,,CLR,0.00,VWS V13.01,2013-08-25 02:07:00,
2013-08-24 22:12:00,61.2,51.7,30.32,West,267,0.0,0.0,71,0.00,,CLR,0.00,VWS V13.01,2013-08-25 02:12:00,
2013-08-24 22:17:00,61.2,51.7,30.32,West,267,0.0,0.0,71,0.00,,CLR,0.00,VWS V13.01,2013-08-25 02:17:00,
2013-08-24 22:22:00,61.0,51.5,30.32,West,267,0.0,0.0,71,0.00,,CLR,0.00,VWS V13.01,2013-08-25 02:22:00,
2013-08-24 22:27:00,60.8,51.3,30.32,West,267,0.0,0.0,71,0.00,,CLR,0.00,VWS V13.01,2013-08-25 02:27:00,
2013-08-24 22:32:00,60.6,51.6,30.32,NW,306,0.0,0.0,72,0.00,,CLR,0.00,VWS V13.01,2013-08-25 02:32:00,
2013-08-24 22:37:00,60.6,51.6,30.32,NW,306,0.0,0.0,72,0.00,,CLR,0.00,VWS V13.01,2013-08-25 02:37:00,
2013-08-24 22:42:00,60.4,51.8,30.32,NW,306,0.0,0.0,73,0.00,,CLR,0.00,VWS V13.01,2013-08-25 02:42:00,
2013-08-24 22:47:00,60.4,51.8,30.32,NW,306,0.0,0.0,73,0.00,,CLR,0.00,VWS V13.01,2013-08-25 02:47:00,
2013-08-24 22:52:00,60.3,51.6,30.32,NW,306,0.0,0.0,73,0.00,,CLR,0.00,VWS V13.01,2013-08-25 02:52:00,
2013-08-24 22:57:00,60.1,51.4,30.35,NW,306,0.0,0.0,73,0.00,,CLR,0.00,VWS V13.01,2013-08-25 02:57:00,
2013-08-24 23:02:00,59.9,51.2,30.35,NW,306,0.0,0.0,73,0.00,,CLR,0.00,VWS V13.01,2013-08-25 03:02:00,
2013-08-24 23:07:00,59.7,51.4,30.35,NW,306,0.0,0.0,74,0.00,,CLR,0.00,VWS V13.01,2013-08-25 03:07:00,
2013-08-24 23:12:00,59.7,51.4,30.35,NW,306,0.0,0.0,74,0.00,,CLR,0.00,VWS V13.01,2013-08-25 03:12:00,
2013-08-24 23:17:00,59.7,51.4,30.35,NW,306,0.0,0.0,74,0.00,,CLR,0.00,VWS V13.01,2013-08-25 03:17:00,
2013-08-24 23:22:00,59.5,51.3,30.35,NW,306,0.0,0.0,74,0.00,,CLR,0.00,VWS V13.01,2013-08-25 03:22:00,
2013-08-24 23:27:00,59.4,51.1,30.35,NW,306,0.0,0.0,74,0.00,,CLR,0.00,VWS V13.01,2013-08-25 03:27:00,
2013-08-24 23:32:00,59.4,51.5,30.35,NW,306,0.0,0.0,75,0.00,,CLR,0.00,VWS V13.01,2013-08-25 03:32:00,
2013-08-24 23:37:00,59.4,51.8,30.35,NW,306,0.0,0.0,76,0.00,,CLR,0.00,VWS V13.01,2013-08-25 03:37:00,
2013-08-24 23:42:00,59.4,51.8,30.35,NW,306,0.0,0.0,76,0.00,,CLR,0.00,VWS V13.01,2013-08-25 03:42:00,
2013-08-24 23:47:00,59.2,51.6,30.35,NW,306,0.0,0.0,76,0.00,,CLR,0.00,VWS V13.01,2013-08-25 03:47:00,
2013-08-24 23:52:00,59.2,51.6,30.35,NW,306,0.0,0.0,76,0.00,,CLR,0.00,VWS V13.01,2013-08-25 03:52:00,
2013-08-24 23:57:00,59.0,51.5,30.35,NW,306,0.0,0.0,76,0.00,,CLR,0.00,VWS V13.01,2013-08-25 03:57:00,